Latest Weather Observations for Mount Gambier

IDS60801

Issued at 10:05 am CST Thursday 17 April 2014 (issued every 30 minutes, with the page automatically refreshed every 10 minutes)

About weather observations | Map of weather stations | Latest weather observations for SA | Other Formats
Station Details ID: 026021 Name: MOUNT GAMBIER AERO Lat: -37.75 Lon: 140.77 Height: 63.0 m
Data from the previous 72 hours. | See also: Recent months at Mount Gambier
Date/Time
CST
Temp
°C
App
Temp
°C
Dew
Point
Rel
Hum
%
Delta-T
°C
Wind Press
QNH
hPa
Press
MSL
hPa
Rain
since 9 am
mm
Dir
 
Spd
km/h
Gust
km/h
Spd
kts
Gust
kts
17/10:00am 16.4 14.9 13.2 81 1.8 N 13 17 7 9 1020.4 - 0.0
17/09:30am 14.7 12.6 12.5 87 1.2 N 15 17 8 9 1020.5 - 0.0
17/09:00am 12.9 10.4 11.2 89 0.9 N 15 19 8 10 1020.7 1020.7 1.6
17/08:30am 12.1 9.6 10.9 92 0.6 N 15 20 8 11 1020.7 - 1.6
17/08:00am 11.6 10.0 10.2 91 0.7 N 9 15 5 8 1020.5 - 1.4
17/07:30am 10.9 8.5 9.9 93 0.5 N 13 19 7 10 1020.1 - 1.4
17/07:00am 9.9 8.1 9.3 96 0.3 NNE 9 11 5 6 1019.9 - 1.4
17/06:30am 10.3 7.4 9.7 96 0.3 N 15 20 8 11 1019.6 - 1.4
17/06:01am 10.4 8.3 9.6 95 0.4 N 11 17 6 9 1019.5 - 1.4
17/06:00am 10.4 8.3 9.6 95 0.4 N 11 17 6 9 1019.5 1019.5 1.4
17/05:30am 10.2 8.4 9.6 96 0.3 NNW 9 13 5 7 1019.5 - 1.4
17/05:00am 10.1 7.5 9.5 96 0.3 N 13 17 7 9 1019.4 - 1.4
17/04:30am 9.7 6.3 9.3 97 0.2 N 17 22 9 12 1019.2 - 1.4
17/04:00am 8.3 5.3 7.9 97 0.2 N 13 17 7 9 1019.1 - 1.4
17/03:30am 7.4 6.8 7.2 99 0.1 CALM 0 4 0 2 1019.0 - 1.4
17/03:07am 7.6 7.0 7.2 97 0.2 CALM 0 0 0 0 1018.8 - 1.4
17/03:00am 8.0 6.7 7.6 97 0.2 NNE 4 7 2 4 1018.8 1018.8 1.4
17/02:30am 7.0 6.3 7.0 100 0.0 CALM 0 0 0 0 1018.9 - 1.4
17/02:16am 7.6 6.6 7.2 97 0.2 NNW 2 6 1 3 1019.0 - 1.4
17/02:00am 8.2 5.9 7.6 96 0.3 NE 9 9 5 5 1019.1 - 1.4
17/01:30am 9.2 6.8 8.6 96 0.3 NNE 11 11 6 6 1019.2 - 1.4
17/01:00am 9.8 7.2 9.4 97 0.2 NNE 13 13 7 7 1019.2 - 1.4
17/12:30am 9.4 7.1 9.0 97 0.2 NNE 11 11 6 6 1019.2 - 1.4
17/12:00am 9.7 8.2 9.3 97 0.2 ENE 7 9 4 5 1019.2 1019.2 1.4
 
Date/Time
CST
Temp
°C
App
Temp
°C
Dew
Point
Rel
Hum
%
Delta-T
°C
Wind Press
QNH
hPa
Press
MSL
hPa
Rain
since 9 am
mm
Dir
 
Spd
km/h
Gust
km/h
Spd
kts
Gust
kts
16/11:45pm 9.7 7.5 9.3 97 0.2 NNE 11 15 6 8 1019.2 - 1.4
16/11:42pm 9.7 7.1 9.3 97 0.2 N 13 15 7 8 1019.2 - 1.4
16/11:30pm 9.3 6.6 8.9 97 0.2 NNE 13 15 7 8 1019.3 - 1.4
16/11:00pm 10.1 8.0 9.9 99 0.1 NNE 11 11 6 6 1019.6 - 1.4
16/10:30pm 9.5 7.7 9.5 100 0.0 NNE 9 11 5 6 1019.7 - 1.4
16/10:00pm 9.5 8.0 9.1 97 0.2 N 7 9 4 5 1019.7 - 1.4
16/09:30pm 10.2 9.2 10.2 100 0.0 N 6 7 3 4 1019.9 - 1.4
16/09:00pm 9.8 9.7 9.4 97 0.2 CALM 0 0 0 0 1020.0 1020.0 1.4
16/08:30pm 11.0 11.2 10.6 97 0.2 CALM 0 0 0 0 1020.0 - 1.4
16/08:00pm 10.9 11.0 10.3 96 0.3 CALM 0 0 0 0 1019.8 - 1.4
16/07:49pm 11.8 12.2 11.2 96 0.3 CALM 0 0 0 0 1019.9 - 1.4
16/07:30pm 12.4 11.6 11.8 96 0.3 N 7 9 4 5 1019.8 - 1.4
16/07:00pm 12.4 11.3 12.0 97 0.2 NNE 9 9 5 5 1019.7 - 1.2
16/06:30pm 12.6 12.1 12.0 96 0.3 ENE 6 9 3 5 1019.2 - 1.2
16/06:00pm 13.3 14.1 12.6 95 0.4 CALM 0 0 0 0 1019.3 1019.3 1.2
16/05:30pm 13.7 13.2 12.6 93 0.6 SW 7 9 4 5 1019.1 - 1.2
16/05:00pm 13.8 12.5 12.5 92 0.7 NNE 11 19 6 10 1018.3 - 1.2
16/04:30pm 14.6 14.1 12.6 88 1.1 W 7 11 4 6 1019.3 - 1.0
16/04:00pm 15.1 12.6 11.2 77 2.1 WSW 15 19 8 10 1019.5 - 0.2
16/03:30pm 17.5 14.0 8.6 56 4.6 W 17 20 9 11 1019.3 - 0.0
16/03:00pm 17.7 13.3 7.4 51 5.2 WSW 20 32 11 17 1019.4 1019.4 0.0
16/02:30pm 19.2 14.1 7.7 47 5.9 WSW 24 33 13 18 1019.1 - 0.0
16/02:00pm 19.5 14.1 8.1 47 5.9 W 26 32 14 17 1018.9 - 0.0
16/01:30pm 19.8 15.0 9.0 49 5.7 W 24 33 13 18 1018.7 - 0.0
16/01:00pm 19.5 15.1 9.0 50 5.5 WNW 22 32 12 17 1018.9 - 0.0
16/12:30pm 20.3 16.3 9.2 49 5.9 WNW 20 32 11 17 1019.0 - 0.0
16/12:00pm 19.7 17.5 10.7 56 4.9 NW 13 19 7 10 1019.4 1019.4 0.0
16/11:30am 18.2 16.4 10.8 62 4.0 NNW 11 19 6 10 1019.7 - 0.0
16/11:00am 17.5 14.5 10.6 64 3.7 NNW 17 20 9 11 1019.8 - 0.0
16/10:30am 16.3 12.7 10.7 69 3.0 NNW 20 28 11 15 1020.1 - 0.0
16/10:00am 14.7 12.1 10.7 77 2.1 N 15 24 8 13 1020.1 - 0.0
16/09:30am 14.4 12.3 11.0 80 1.8 N 13 22 7 12 1020.5 - 0.0
16/09:00am 11.2 9.5 10.0 92 0.6 N 9 13 5 7 1020.6 1020.6 0.0
16/08:30am 10.5 8.7 9.5 93 0.5 N 9 11 5 6 1020.6 - 0.0
16/08:00am 10.2 8.3 9.2 93 0.5 NNE 9 11 5 6 1020.5 - 0.0
16/07:30am 9.9 7.2 9.1 95 0.4 NNE 13 13 7 7 1020.3 - 0.0
16/07:00am 9.5 7.1 8.7 95 0.4 NNE 11 13 6 7 1020.3 - 0.0
16/06:30am 8.8 6.0 8.4 97 0.2 NNE 13 15 7 8 1020.3 - 0.0
16/06:00am 9.6 7.2 8.8 95 0.4 NNE 11 13 6 7 1020.2 1020.2 0.0
16/05:30am 8.5 6.0 8.1 97 0.2 NE 11 13 6 7 1020.0 - 0.0
16/05:00am 8.6 6.1 8.4 99 0.1 NE 11 11 6 6 1020.1 - 0.0
16/04:30am 8.4 5.9 8.2 99 0.1 NE 11 11 6 6 1020.1 - 0.0
16/04:00am 8.5 5.6 8.3 99 0.1 NE 13 13 7 7 1020.0 - 0.0
16/03:30am 8.3 6.2 8.1 99 0.1 NE 9 11 5 6 1020.3 - 0.0
16/03:05am 6.7 5.9 6.5 99 0.1 CALM 0 0 0 0 1020.8 - 0.0
16/03:00am 6.5 5.7 6.5 100 0.0 CALM 0 0 0 0 1020.8 1020.8 0.0
16/02:30am 6.9 6.2 6.9 100 0.0 CALM 0 0 0 0 1021.0 - 0.0
16/02:00am 7.3 6.6 7.1 99 0.1 CALM 0 0 0 0 1021.6 - 0.0
16/01:30am 6.5 5.7 6.3 99 0.1 CALM 0 0 0 0 1021.8 - 0.0
16/01:00am 7.3 6.7 7.3 100 0.0 CALM 0 0 0 0 1022.2 - 0.0
16/12:30am 7.5 5.8 7.5 100 0.0 WSW 6 6 3 3 1022.2 - 0.0
16/12:00am 8.2 7.7 8.0 99 0.1 CALM 0 0 0 0 1022.1 1022.1 0.0
 
Date/Time
CST
Temp
°C
App
Temp
°C
Dew
Point
Rel
Hum
%
Delta-T
°C
Wind Press
QNH
hPa
Press
MSL
hPa
Rain
since 9 am
mm
Dir
 
Spd
km/h
Gust
km/h
Spd
kts
Gust
kts
15/11:30pm 8.5 8.1 8.1 97 0.2 CALM 0 0 0 0 1022.1 - 0.0
15/11:00pm 9.5 9.3 9.1 97 0.2 CALM 0 0 0 0 1022.5 - 0.0
15/10:30pm 9.8 9.7 9.4 97 0.2 CALM 0 0 0 0 1022.7 - 0.0
15/10:00pm 9.9 9.7 8.9 93 0.5 CALM 0 0 0 0 1023.0 - 0.0
15/09:30pm 10.2 9.0 9.4 95 0.4 S 6 7 3 4 1023.3 - 0.0
15/09:27pm 10.2 9.8 9.6 96 0.3 S 2 7 1 4 1023.3 - 0.0
15/09:00pm 10.4 9.0 9.4 93 0.5 S 7 9 4 5 1023.4 1023.4 0.0
15/08:30pm 10.9 9.2 9.9 93 0.5 SE 9 11 5 6 1023.2 - 0.0
15/08:00pm 11.4 9.4 10.2 92 0.6 ESE 11 13 6 7 1023.0 - 0.0
15/07:30pm 11.5 9.5 10.3 92 0.6 SE 11 15 6 8 1023.0 - 0.0
15/07:00pm 12.0 9.6 10.2 89 0.9 SE 13 17 7 9 1023.0 - 0.0
15/06:30pm 12.7 10.4 10.6 87 1.1 SSE 13 15 7 8 1023.1 - 0.0
15/06:00pm 13.7 11.5 10.8 83 1.5 S 13 15 7 8 1023.1 1023.1 0.0
15/05:30pm 14.5 11.7 11.5 82 1.6 S 17 20 9 11 1022.7 - 0.0
15/05:00pm 15.9 13.2 11.8 76 2.2 SSE 17 20 9 11 1022.4 - 0.0
15/04:30pm 17.0 14.0 11.9 72 2.8 S 19 24 10 13 1022.4 - 0.0
15/04:00pm 17.1 14.0 11.6 70 3.0 S 19 26 10 14 1022.4 - 0.0
15/03:30pm 17.7 14.8 12.3 70 3.0 SSE 19 26 10 14 1022.2 - 0.0
15/03:00pm 17.3 14.3 11.8 70 3.0 SSE 19 22 10 12 1022.4 1022.4 0.0
15/02:30pm 17.6 14.5 12.2 70 3.0 SE 20 26 11 14 1022.5 - 0.0
15/02:00pm 18.7 15.9 11.4 62 4.0 SSE 17 24 9 13 1022.5 - 0.0
15/01:30pm 18.2 15.5 11.6 65 3.6 SSE 17 26 9 14 1022.7 - 0.0
15/01:00pm 18.1 15.6 10.9 63 3.9 S 15 20 8 11 1023.0 - 0.0
15/12:30pm 17.8 15.5 11.6 67 3.4 SSE 15 20 8 11 1023.5 - 0.0
15/12:00pm 17.1 13.9 11.4 69 3.1 SSE 19 28 10 15 1024.0 1024.0 0.0
15/11:30am 17.4 14.5 12.3 72 2.8 S 19 30 10 16 1024.5 - 0.0
15/11:00am 17.2 14.9 11.9 71 2.9 S 15 20 8 11 1024.7 - 0.0
15/10:30am 16.4 14.2 12.0 75 2.4 S 15 19 8 10 1025.0 - 0.0
15/10:00am 16.9 14.2 12.9 77 2.2 S 19 26 10 14 1025.2 - 0.0
15/09:30am 15.6 13.2 13.8 89 1.0 SSE 19 24 10 13 1025.3 - 0.0
15/09:00am 15.2 14.2 14.7 97 0.3 SSE 13 17 7 9 1025.3 1025.3 0.2
15/08:30am 12.6 13.4 12.4 99 0.1 CALM 0 0 0 0 1025.3 - 0.2
15/08:00am 12.4 13.2 12.4 100 0.0 CALM 0 0 0 0 1025.2 - 0.2
15/07:30am 10.6 10.7 10.2 97 0.2 CALM 0 0 0 0 1025.1 - 0.2
15/07:00am 9.6 9.5 9.6 100 0.0 CALM 0 0 0 0 1024.7 - 0.2
15/06:30am 9.1 8.9 8.9 99 0.1 CALM 0 0 0 0 1024.5 - 0.2
15/06:00am 9.2 9.0 9.0 99 0.1 CALM 0 0 0 0 1024.6 1024.6 0.2
15/05:42am 9.0 8.7 8.8 99 0.1 CALM 0 0 0 0 1024.6 - 0.2
15/05:30am 8.9 8.7 8.9 100 0.0 CALM 0 0 0 0 1024.5 - 0.2
15/05:21am 8.9 8.6 8.5 97 0.2 CALM 0 0 0 0 1024.5 - 0.2
15/05:10am 9.1 8.9 8.9 99 0.1 CALM 0 0 0 0 1024.5 - 0.2
15/05:00am 9.5 9.3 8.9 96 0.3 CALM 0 0 0 0 1024.5 - 0.2
15/04:30am 8.7 8.3 8.3 97 0.2 CALM 0 0 0 0 1024.4 - 0.0
15/04:19am 8.9 8.7 8.9 100 0.0 CALM 0 0 0 0 1024.3 - 0.0
15/04:00am 8.7 8.4 8.7 100 0.0 CALM 0 0 0 0 1024.3 - 0.0
15/03:30am 9.3 9.1 8.9 97 0.2 CALM 0 7 0 4 1024.3 - 0.0
15/03:09am 8.3 7.9 8.1 99 0.1 CALM 0 0 0 0 1024.3 - 0.0
15/03:00am 7.9 7.3 7.5 97 0.2 CALM 0 6 0 3 1024.3 1024.3 0.0
15/02:30am 7.1 5.1 6.4 95 0.3 W 6 7 3 4 1024.4 - 0.0
15/02:21am 7.5 5.8 7.5 100 0.0 W 6 9 3 5 1024.4 - 0.0
15/02:08am 8.4 7.9 7.8 96 0.3 CALM 0 0 0 0 1024.5 - 0.0
15/02:00am 7.8 7.2 7.6 99 0.1 CALM 0 0 0 0 1024.6 - 0.0
15/01:30am 9.6 9.5 9.4 99 0.1 CALM 0 0 0 0 1024.7 - 0.0
15/01:00am 9.4 9.2 9.2 99 0.1 CALM 0 0 0 0 1024.7 - 0.0
15/12:30am 8.6 8.1 8.0 96 0.3 CALM 0 0 0 0 1024.7 - 0.0
15/12:00am 10.0 10.0 9.8 99 0.1 CALM 0 0 0 0 1024.5 1024.5 0.0
 
Date/Time
CST
Temp
°C
App
Temp
°C
Dew
Point
Rel
Hum
%
Delta-T
°C
Wind Press
QNH
hPa
Press
MSL
hPa
Rain
since 9 am
mm
Dir
 
Spd
km/h
Gust
km/h
Spd
kts
Gust
kts
14/11:30pm 10.5 10.6 10.1 97 0.2 CALM 0 0 0 0 1024.6 - 0.0
14/11:00pm 9.8 8.5 9.2 96 0.3 SSE 6 7 3 4 1024.6 - 0.0
14/10:30pm 9.5 8.6 9.1 97 0.2 S 4 7 2 4 1024.9 - 0.0
14/10:03pm 9.6 8.2 9.6 100 0.0 S 7 9 4 5 1024.9 - 0.0
14/10:00pm 10.2 8.9 9.8 97 0.2 S 7 7 4 4 1025.0 - 0.0
14/09:30pm 10.6 8.9 10.0 96 0.3 S 9 11 5 6 1025.1 - 0.0
14/09:00pm 10.5 8.1 9.9 96 0.3 SSE 13 15 7 8 1025.1 1025.1 0.0
14/08:30pm 10.8 9.2 10.2 96 0.3 SSE 9 11 5 6 1025.1 - 0.0
14/08:00pm 11.7 9.9 10.9 95 0.4 S 11 13 6 7 1024.9 - 0.0
14/07:30pm 12.6 11.0 11.5 93 0.6 S 11 13 6 7 1024.7 - 0.0
14/07:00pm 13.1 11.1 11.6 91 0.8 S 13 17 7 9 1024.5 - 0.0
14/06:30pm 13.5 11.2 11.8 89 0.9 S 15 17 8 9 1024.3 - 0.0
14/06:00pm 14.0 11.3 11.8 86 1.2 S 17 22 9 12 1023.9 1023.9 0.0
14/05:30pm 14.7 11.4 11.7 82 1.6 S 20 28 11 15 1023.6 - 0.0
14/05:00pm 15.8 11.7 11.5 75 2.3 S 24 32 13 17 1023.5 - 0.0
14/04:30pm 17.0 13.3 11.5 70 3.0 S 22 30 12 16 1023.3 - 0.0
14/04:00pm 17.9 13.4 10.0 60 4.2 S 24 33 13 18 1023.1 - 0.0
14/03:30pm 18.0 12.7 9.9 59 4.3 SSE 28 35 15 19 1023.2 - 0.0
14/03:00pm 17.5 13.9 10.6 64 3.7 S 20 26 11 14 1023.2 1023.2 0.0
14/02:30pm 18.2 14.4 11.0 63 3.9 SSE 22 30 12 16 1023.2 - 0.0
14/02:00pm 18.0 14.6 10.5 61 4.0 SSE 19 26 10 14 1023.1 - 0.0
14/01:30pm 17.9 13.9 10.6 62 3.9 SSE 22 28 12 15 1023.2 - 0.0
14/01:00pm 18.2 14.8 11.4 64 3.7 SSE 20 30 11 16 1023.4 - 0.0
14/12:30pm 18.3 15.0 11.7 65 3.6 SE 20 28 11 15 1023.9 - 0.0
14/12:00pm 18.7 15.5 11.2 61 4.1 SE 19 28 10 15 1024.1 1024.1 0.0
14/11:30am 18.9 15.7 11.2 61 4.2 SSE 19 28 10 15 1024.5 - 0.0
14/11:00am 17.9 14.8 12.1 69 3.2 S 20 30 11 16 1024.7 - 0.0
14/10:30am 19.0 15.9 11.7 62 4.0 ESE 19 26 10 14 1024.9 - 0.0

Other Formats:

Comma delimited format used in spreadsheet applications
http://www.bom.gov.au/fwo/IDS60801/IDS60801.94821.axf

JavaScript Object Notation format (JSON) in row-major order
http://www.bom.gov.au/fwo/IDS60801/IDS60801.94821.json